createdAt,value
2019-02-07T05:00:23.149Z,0
2019-02-07T05:03:51.001Z,0
2019-02-07T05:07:18.862Z,0
2019-02-07T05:10:46.721Z,0
2019-02-07T05:14:14.587Z,0
2019-02-07T05:17:42.447Z,0
2019-02-07T05:21:10.317Z,0
2019-02-07T05:24:38.167Z,0
2019-02-07T05:28:06.039Z,0
2019-02-07T05:31:34.900Z,0
2019-02-07T05:35:02.773Z,0
2019-02-07T05:38:30.650Z,0
2019-02-07T05:41:58.496Z,0
2019-02-07T05:45:26.346Z,0
2019-02-07T05:48:54.207Z,0
2019-02-07T05:52:22.080Z,0
2019-02-07T05:55:50.139Z,0
2019-02-07T05:59:17.903Z,0
2019-02-07T06:02:46.769Z,0
2019-02-07T06:06:14.653Z,0
2019-02-07T06:09:42.502Z,0
2019-02-07T06:13:10.371Z,1
2019-02-07T06:16:38.225Z,1
2019-02-07T06:20:06.105Z,1
2019-02-07T06:23:33.964Z,3
2019-02-07T06:27:01.938Z,6
2019-02-07T06:30:29.782Z,9
2019-02-07T06:33:57.652Z,14
2019-02-07T06:37:25.529Z,18
2019-02-07T06:40:53.378Z,27
2019-02-07T06:44:21.239Z,39
2019-02-07T06:47:49.106Z,55
2019-02-07T06:51:16.960Z,66
2019-02-07T06:54:44.850Z,73
2019-02-07T06:58:12.708Z,89
2019-02-07T07:01:40.556Z,115
2019-02-07T07:05:08.420Z,157
2019-02-07T07:08:36.307Z,102
2019-02-07T07:12:04.152Z,168
2019-02-07T07:15:32.018Z,162
2019-02-07T07:18:59.877Z,273
2019-02-07T07:22:28.720Z,368
2019-02-07T07:25:56.584Z,310
2019-02-07T07:29:24.449Z,366
2019-02-07T07:32:53.290Z,500
2019-02-07T07:36:22.139Z,685
2019-02-07T07:39:50.002Z,808
2019-02-07T07:43:17.845Z,937
2019-02-07T07:46:46.712Z,826
2019-02-07T07:50:14.574Z,892
2019-02-07T07:53:42.424Z,985
2019-02-07T07:57:10.310Z,1050
2019-02-07T08:00:38.180Z,1061
2019-02-07T08:04:06.035Z,1116
2019-02-07T08:07:33.895Z,1242
2019-02-07T08:11:01.764Z,1279
2019-02-07T08:14:31.588Z,1098
2019-02-07T08:17:59.461Z,1088
2019-02-07T08:21:27.332Z,1020
2019-02-07T08:24:55.181Z,978
2019-02-07T08:28:23.057Z,979
2019-02-07T08:31:51.930Z,1192
2019-02-07T08:35:19.778Z,2130
2019-02-07T08:38:49.840Z,3014
2019-02-07T08:42:16.569Z,2671
2019-02-07T08:45:44.427Z,2478
2019-02-07T08:49:12.285Z,2589
2019-02-07T08:52:40.151Z,2832
2019-02-07T08:56:08.002Z,3044
2019-02-07T08:59:35.861Z,3379
2019-02-07T09:03:04.716Z,3737
2019-02-07T09:06:32.574Z,4134
2019-02-07T09:10:00.438Z,4397
2019-02-07T09:13:28.306Z,4598
2019-02-07T09:16:56.156Z,4292
2019-02-07T09:20:24.034Z,4374
2019-02-07T09:23:51.926Z,4036
2019-02-07T09:27:19.779Z,3710
2019-02-07T09:30:47.662Z,3310
2019-02-07T09:34:15.534Z,2965
2019-02-07T09:37:43.400Z,2970
2019-02-07T09:41:11.279Z,2862
2019-02-07T09:44:39.148Z,2417
2019-02-07T09:48:07.063Z,2136
2019-02-07T09:51:35.906Z,2097
2019-02-07T09:55:03.778Z,2129
2019-02-07T09:58:31.637Z,2197
2019-02-07T10:01:59.491Z,2100
2019-02-07T10:05:27.358Z,2003
2019-02-07T10:08:55.328Z,1983
2019-02-07T10:12:23.281Z,2016
2019-02-07T10:15:51.165Z,2056
2019-02-07T10:19:19.038Z,2162
2019-02-07T10:22:47.775Z,2131
2019-02-07T10:26:15.642Z,2201
2019-02-07T10:29:43.518Z,2511
2019-02-07T10:33:11.368Z,2753
2019-02-07T10:36:39.249Z,2817
2019-02-07T10:40:07.120Z,2842
2019-02-07T10:43:35.971Z,2723
2019-02-07T10:47:03.843Z,2812
2019-02-07T10:50:31.714Z,2706
2019-02-07T10:53:59.562Z,2510
2019-02-07T10:57:27.442Z,2563
2019-02-07T11:00:56.299Z,3058
2019-02-07T11:04:24.185Z,3006
2019-02-07T11:07:52.814Z,2780
2019-02-07T11:11:21.686Z,2972
2019-02-07T11:14:49.539Z,3200
2019-02-07T11:18:17.408Z,3097
2019-02-07T11:21:45.269Z,2832
2019-02-07T11:25:13.118Z,2317
2019-02-07T11:28:41.012Z,2339
2019-02-07T11:32:08.959Z,2444
2019-02-07T11:35:37.829Z,2289
2019-02-07T11:39:05.689Z,2206
2019-02-07T11:42:33.559Z,2239
2019-02-07T11:46:01.414Z,2364
2019-02-07T11:49:29.279Z,2375
2019-02-07T11:52:57.146Z,2285
2019-02-07T11:56:24.997Z,2064
2019-02-07T11:59:53.859Z,2080
2019-02-07T12:03:21.726Z,2106
2019-02-07T12:06:49.605Z,2331
2019-02-07T12:10:17.467Z,2446
2019-02-07T12:13:45.333Z,2378
2019-02-07T12:17:13.189Z,1974
2019-02-07T12:20:41.112Z,1500
2019-02-07T12:24:10.008Z,1125
2019-02-07T12:27:37.859Z,1075
2019-02-07T12:31:05.724Z,1279
2019-02-07T12:34:33.591Z,1609
2019-02-07T12:38:01.565Z,1716
2019-02-07T12:41:29.411Z,1517
2019-02-07T12:44:58.273Z,2302
2019-02-07T12:48:26.140Z,2702
2019-02-07T12:51:53.982Z,2523
2019-02-07T12:55:21.977Z,3684
2019-02-07T12:58:50.832Z,4247
2019-02-07T13:02:18.681Z,2742
2019-02-07T13:05:47.238Z,2244
2019-02-07T13:09:15.116Z,2294
2019-02-07T13:12:42.995Z,3077
2019-02-07T13:16:10.890Z,2556
2019-02-07T13:19:41.779Z,2208
2019-02-07T13:23:09.587Z,1951
2019-02-07T13:26:37.448Z,2049
2019-02-07T13:30:05.368Z,1976
2019-02-07T13:33:33.174Z,1890
2019-02-07T13:37:01.057Z,1880
2019-02-07T13:40:28.892Z,1341
2019-02-07T13:43:56.745Z,1435
2019-02-07T13:47:24.619Z,1848
2019-02-07T13:50:52.480Z,1571
2019-02-07T13:54:20.701Z,1027
2019-02-07T13:57:48.539Z,1233
2019-02-07T14:01:17.614Z,1127
2019-02-07T14:04:45.259Z,981
2019-02-07T14:08:13.117Z,722
2019-02-07T14:11:40.981Z,796
2019-02-07T14:15:08.916Z,1265
2019-02-07T14:18:36.763Z,2189
2019-02-07T14:22:04.633Z,1744
2019-02-07T14:25:32.492Z,1360
2019-02-07T14:29:00.348Z,1376
2019-02-07T14:32:28.215Z,1413
2019-02-07T14:35:56.167Z,1188
2019-02-07T14:39:24.033Z,1323
2019-02-07T14:42:51.901Z,1005
2019-02-07T14:46:19.749Z,679
2019-02-07T14:49:47.620Z,808
2019-02-07T14:53:16.484Z,837
2019-02-07T14:56:44.334Z,641
2019-02-07T15:00:13.242Z,622
2019-02-07T15:03:41.110Z,456
2019-02-07T15:07:08.976Z,408
2019-02-07T15:10:36.824Z,360
2019-02-07T15:14:04.695Z,336
2019-02-07T15:17:32.582Z,358
2019-02-07T15:21:01.429Z,448
2019-02-07T15:24:29.311Z,326
2019-02-07T15:27:57.185Z,224
2019-02-07T15:31:25.037Z,233
2019-02-07T15:34:54.057Z,297
2019-02-07T15:38:21.810Z,265
2019-02-07T15:41:49.632Z,205
2019-02-07T15:45:17.484Z,157
2019-02-07T15:48:45.361Z,120
2019-02-07T15:52:13.225Z,121
2019-02-07T15:55:42.070Z,133
2019-02-07T15:59:09.927Z,111
2019-02-07T16:02:38.796Z,80
2019-02-07T16:06:08.626Z,69
2019-02-07T16:09:37.485Z,55
2019-02-07T16:13:06.347Z,34
2019-02-07T16:16:35.224Z,20
2019-02-07T16:20:04.078Z,12
2019-02-07T16:23:31.945Z,8
2019-02-07T16:26:59.818Z,5
2019-02-07T16:30:30.373Z,3
2019-02-07T16:33:56.543Z,2
2019-02-07T16:37:25.397Z,2
2019-02-07T16:40:53.247Z,1
2019-02-07T16:44:21.124Z,0
2019-02-07T16:47:49.004Z,0
2019-02-07T16:51:16.856Z,0
2019-02-07T16:54:44.719Z,0
2019-02-07T16:58:13.582Z,0
2019-02-07T17:01:41.428Z,0
2019-02-07T17:05:09.299Z,0
2019-02-07T17:08:37.166Z,0
2019-02-07T17:12:05.042Z,0
2019-02-07T17:15:32.898Z,0
2019-02-07T17:19:00.762Z,0
2019-02-07T17:22:28.625Z,0
2019-02-07T17:25:56.473Z,0
2019-02-07T17:29:24.344Z,0
2019-02-07T17:32:52.218Z,0
2019-02-07T17:36:20.070Z,0
2019-02-07T17:39:48.934Z,0
2019-02-07T17:43:16.802Z,0
2019-02-07T17:46:45.025Z,0
2019-02-07T17:50:13.866Z,0
2019-02-07T17:53:41.732Z,0
2019-02-07T17:57:10.586Z,0
2019-02-07T18:00:38.439Z,0
2019-02-07T18:04:07.301Z,0
2019-02-07T18:07:35.157Z,0
2019-02-07T18:11:03.009Z,0
2019-02-07T18:14:30.876Z,0
2019-02-07T18:17:58.763Z,0
2019-02-07T18:21:34.072Z,0
2019-02-07T18:25:00.308Z,0
2019-02-07T18:28:29.364Z,0
2019-02-07T18:31:57.219Z,0
2019-02-07T18:35:25.106Z,0
2019-02-07T18:38:52.983Z,0
2019-02-07T18:42:20.853Z,0
2019-02-07T18:45:48.812Z,0
2019-02-07T18:49:17.453Z,0
2019-02-07T18:52:45.304Z,0
2019-02-07T18:56:13.175Z,0
2019-02-07T18:59:41.031Z,0
2019-02-07T19:03:08.889Z,0
2019-02-07T19:06:36.760Z,0
2019-02-07T19:10:05.636Z,0
2019-02-07T19:13:33.498Z,0
2019-02-07T19:17:01.465Z,0
2019-02-07T19:20:29.350Z,0
2019-02-07T19:23:57.206Z,0
2019-02-07T19:27:25.063Z,0
2019-02-07T19:30:52.936Z,0
2019-02-07T19:34:20.860Z,0
2019-02-07T19:37:48.731Z,0
2019-02-07T19:41:16.594Z,0
2019-02-07T19:44:45.527Z,0
2019-02-07T19:48:15.104Z,0
2019-02-07T19:51:46.550Z,0
2019-02-07T19:55:15.601Z,0
2019-02-07T19:58:45.220Z,0
2019-02-07T20:02:13.543Z,0
2019-02-07T20:05:42.116Z,0
2019-02-07T20:09:10.005Z,0
2019-02-07T20:12:38.956Z,0
2019-02-07T20:16:08.522Z,0
2019-02-07T20:19:36.609Z,0
2019-02-07T20:23:04.627Z,0
2019-02-07T20:26:32.722Z,0
2019-02-07T20:30:00.643Z,0
2019-02-07T20:33:28.543Z,0
2019-02-07T20:36:57.108Z,0
2019-02-07T20:40:25.107Z,0
2019-02-07T20:43:53.034Z,0
2019-02-07T20:47:20.955Z,0
2019-02-07T20:50:48.873Z,0
2019-02-07T20:54:18.126Z,0
2019-02-07T20:57:46.807Z,0
2019-02-07T21:01:14.727Z,0
2019-02-07T21:04:42.646Z,0
2019-02-07T21:08:10.661Z,0
2019-02-07T21:11:38.672Z,0
2019-02-07T21:15:08.116Z,0
2019-02-07T21:18:35.502Z,0
2019-02-07T21:22:03.384Z,0
2019-02-07T21:25:32.083Z,0
2019-02-07T21:29:00.897Z,0
2019-02-07T21:32:28.806Z,0
2019-02-07T21:35:57.429Z,0
2019-02-07T21:39:27.307Z,0
2019-02-07T21:42:56.175Z,0
2019-02-07T21:46:25.038Z,0
2019-02-07T21:49:52.884Z,0
2019-02-07T21:53:20.937Z,0
2019-02-07T21:56:48.804Z,0
2019-02-07T22:00:16.717Z,0
2019-02-07T22:03:44.612Z,0
2019-02-07T22:07:12.518Z,0
2019-02-07T22:10:40.915Z,0
2019-02-07T22:14:08.797Z,0
2019-02-07T22:17:36.680Z,0
2019-02-07T22:21:06.294Z,0
2019-02-07T22:24:34.142Z,0
2019-02-07T22:28:02.017Z,0
2019-02-07T22:31:30.879Z,0
2019-02-07T22:34:59.799Z,0
2019-02-07T22:38:28.832Z,0
2019-02-07T22:41:56.683Z,0
2019-02-07T22:45:25.554Z,0
2019-02-07T22:48:53.406Z,0
2019-02-07T22:52:21.279Z,0
2019-02-07T22:55:49.184Z,0
2019-02-07T22:59:18.030Z,0
